Wingate, Mississippi
Current Conditions -  °F | °C
As of 5:53 AM on Sunday 21 Dec 2014 (Local Time) from KHBG Reporting Station
Overcast Overcast  
Wind Chill: 45°   Ceiling: 700
Heat Index: 45°   Visibility: 10mi
Dew Point: 42°   Wind: 3mph
Humidity: 90%   Direction: 30°NNE
Pressure: 30.14"   Gusts: NA
Location:  31.0667°N, 89.05°W
Report Text: KHBG 211153Z AUTO 03003KT 10SM OVC007 07/06 A3014 RMK AO2 SLP206 T00720056 10083 20061 55008
Loading
Personal Weather Stations






























Interactive Weather Map New forecast layout! Learn more

10-Day Weather Forecast

Advertisements
Track Severe Weather on mobile